Time;durP1;ratioP1;P1;durP2;ratioP2;P2;SDS_P1;SDS_P2;PMS_P1;PMS_P2;Temp;Humidity;BMP_temperature;BMP_pressure;BME280_temperature;BME280_humidity;BME280_pressure;Samples;Min_cycle;Max_cycle;Signal;HPM_P1;HPM_P2
2021/04/17 00:02:33;;;;;;;1.53;0.73;;;;;;;;;;10208592;28;20049;-64
2021/04/17 00:07:30;;;;;;;13.00;1.50;;;;;;;;;;10230970;28;20542;-59
2021/04/17 00:12:28;;;;;;;6.07;1.30;;;;;;;;;;10239634;28;20119;-61
2021/04/17 00:17:25;;;;;;;5.77;1.37;;;;;;;;;;10242877;28;20030;-63
2021/04/17 00:22:22;;;;;;;4.43;0.80;;;;;;;;;;10248333;28;20056;-63
2021/04/17 00:27:20;;;;;;;2.53;0.83;;;;;;;;;;10235594;28;20076;-62
2021/04/17 00:32:17;;;;;;;5.83;1.37;;;;;;;;;;10247625;28;20504;-63
2021/04/17 00:37:15;;;;;;;3.20;1.00;;;;;;;;;;10249408;28;20041;-62
2021/04/17 00:42:12;;;;;;;4.40;1.40;;;;;;;;;;10236427;28;20053;-63
2021/04/17 00:47:10;;;;;;;0.57;0.20;;;;;;;;;;10232985;28;20466;-63
2021/04/17 00:52:08;;;;;;;3.03;1.37;;;;;;;;;;10240751;28;20131;-62
2021/04/17 00:57:05;;;;;;;5.77;1.20;;;;;;;;;;10225288;28;20984;-63
2021/04/17 01:02:03;;;;;;;1.00;0.63;;;;;;;;;;10223594;28;20022;-62
2021/04/17 01:07:07;;;;;;;3.77;1.10;;;;;;;;;;10246103;28;20030;-63
2021/04/17 01:12:06;;;;;;;3.97;0.98;;;;;;;;;;10258452;28;20033;-64
2021/04/17 01:17:05;;;;;;;1.73;1.17;;;;;;;;;;10263815;28;20034;-62
2021/04/17 01:22:02;;;;;;;;;;;;;;;;;;10241432;28;20018;-63
2021/04/17 01:27:00;;;;;;;4.75;0.40;;;;;;;;;;10222041;28;20492;-63
2021/04/17 01:31:59;;;;;;;9.90;1.63;;;;;;;;;;10243180;28;20034;-62
2021/04/17 01:36:58;;;;;;;3.30;0.95;;;;;;;;;;10262260;28;20037;-61
2021/04/17 01:42:00;;;;;;;2.25;0.70;;;;;;;;;;10220211;28;20076;-64
2021/04/17 01:47:05;;;;;;;5.00;0.73;;;;;;;;;;10241837;28;20019;-63
2021/04/17 01:52:03;;;;;;;0.32;0.32;;;;;;;;;;10293507;28;20551;-62
2021/04/17 01:57:01;;;;;;;3.60;0.53;;;;;;;;;;10300380;28;20049;-63
2021/04/17 02:01:59;;;;;;;1.67;0.93;;;;;;;;;;10294981;28;20449;-62
2021/04/17 02:06:56;;;;;;;2.67;0.97;;;;;;;;;;10295890;28;20021;-63
2021/04/17 02:11:54;;;;;;;3.70;1.23;;;;;;;;;;10282810;28;20037;-63
2021/04/17 02:16:57;;;;;;;1.30;0.77;;;;;;;;;;10293758;28;20053;-63
2021/04/17 02:21:57;;;;;;;2.28;1.20;;;;;;;;;;10240993;28;20049;-64
2021/04/17 02:26:55;;;;;;;3.65;1.40;;;;;;;;;;10218704;28;20038;-63
2021/04/17 02:31:52;;;;;;;3.95;1.13;;;;;;;;;;10287990;28;20136;-63
2021/04/17 02:36:50;;;;;;;1.43;0.57;;;;;;;;;;10297829;28;20167;-62
2021/04/17 02:41:47;;;;;;;6.70;1.50;;;;;;;;;;10292798;28;20469;-62
2021/04/17 02:46:45;;;;;;;2.03;1.17;;;;;;;;;;10284432;28;20507;-61
2021/04/17 02:51:42;;;;;;;3.67;1.30;;;;;;;;;;10283085;28;20033;-61
2021/04/17 02:56:39;;;;;;;6.93;1.37;;;;;;;;;;10297309;28;20132;-60
2021/04/17 03:01:37;;;;;;;1.43;0.80;;;;;;;;;;10304985;28;20045;-61
2021/04/17 03:06:34;;;;;;;1.30;0.77;;;;;;;;;;10288376;28;20045;-60
2021/04/17 03:11:32;;;;;;;3.60;1.20;;;;;;;;;;10285859;28;20077;-63
2021/04/17 03:16:29;;;;;;;5.97;1.70;;;;;;;;;;10290878;28;20034;-60
2021/04/17 03:21:27;;;;;;;3.80;0.77;;;;;;;;;;10251767;28;20070;-62
2021/04/17 03:26:24;;;;;;;5.53;2.87;;;;;;;;;;10245395;28;20037;-61
2021/04/17 03:31:22;;;;;;;3.23;1.30;;;;;;;;;;10258040;28;20104;-60
2021/04/17 03:36:20;;;;;;;0.22;0.22;;;;;;;;;;10243584;28;20045;-62
2021/04/17 03:41:17;;;;;;;1.60;1.33;;;;;;;;;;10249181;28;20044;-63
2021/04/17 03:46:15;;;;;;;0.57;0.57;;;;;;;;;;10244619;28;20030;-63
2021/04/17 03:51:12;;;;;;;1.80;0.53;;;;;;;;;;10239210;28;20060;-63
2021/04/17 03:56:09;;;;;;;3.70;1.20;;;;;;;;;;10249955;28;20049;-63
2021/04/17 04:01:07;;;;;;;3.40;1.53;;;;;;;;;;10280757;28;20041;-62
2021/04/17 04:06:05;;;;;;;0.60;0.52;;;;;;;;;;10281033;28;20068;-64
2021/04/17 04:11:02;;;;;;;0.77;0.70;;;;;;;;;;10245284;28;20574;-62
2021/04/17 04:16:00;;;;;;;3.93;1.33;;;;;;;;;;10246535;28;20100;-62
2021/04/17 04:20:57;;;;;;;1.63;1.40;;;;;;;;;;10270651;28;20103;-62
2021/04/17 04:25:55;;;;;;;2.90;1.50;;;;;;;;;;10285940;28;20037;-63
2021/04/17 04:30:52;;;;;;;0.27;0.17;;;;;;;;;;10251820;28;20563;-62
2021/04/17 04:35:50;;;;;;;1.93;0.80;;;;;;;;;;10259538;28;20037;-62
2021/04/17 04:40:47;;;;;;;0.60;0.57;;;;;;;;;;10289063;28;20076;-64
2021/04/17 04:45:44;;;;;;;5.60;1.17;;;;;;;;;;10251436;28;20057;-63
2021/04/17 04:50:42;;;;;;;3.40;1.30;;;;;;;;;;10248367;28;20030;-64
2021/04/17 04:55:40;;;;;;;1.63;1.27;;;;;;;;;;10236624;28;20465;-63
2021/04/17 05:00:37;;;;;;;5.43;2.33;;;;;;;;;;10246842;28;20053;-63
2021/04/17 05:05:35;;;;;;;2.30;1.47;;;;;;;;;;10271871;28;20034;-62
2021/04/17 05:10:32;;;;;;;3.07;1.20;;;;;;;;;;10271972;28;20042;-62
2021/04/17 05:15:29;;;;;;;2.33;1.20;;;;;;;;;;10222025;28;20584;-62
2021/04/17 05:20:27;;;;;;;1.77;0.70;;;;;;;;;;10248894;28;20506;-65
2021/04/17 05:25:24;;;;;;;2.23;0.67;;;;;;;;;;10273555;28;20098;-62
2021/04/17 05:30:22;;;;;;;0.73;0.60;;;;;;;;;;10271218;28;20033;-61
2021/04/17 05:35:19;;;;;;;0.53;0.30;;;;;;;;;;10265875;28;20034;-62
2021/04/17 05:40:17;;;;;;;1.03;0.80;;;;;;;;;;10252683;28;20046;-65
2021/04/17 05:45:14;;;;;;;0.50;0.50;;;;;;;;;;10226248;28;20419;-66
2021/04/17 05:50:12;;;;;;;3.97;0.90;;;;;;;;;;10258720;28;20046;-64
2021/04/17 05:55:10;;;;;;;3.67;1.10;;;;;;;;;;10231405;28;20081;-64
2021/04/17 06:00:08;;;;;;;1.58;0.70;;;;;;;;;;10242274;28;20403;-63
2021/04/17 06:05:06;;;;;;;3.67;1.73;;;;;;;;;;10258640;28;20100;-63
2021/04/17 06:10:04;;;;;;;2.25;0.90;;;;;;;;;;10204397;28;20034;-62
2021/04/17 06:15:02;;;;;;;3.20;1.42;;;;;;;;;;10239499;28;20446;-63
2021/04/17 06:20:00;;;;;;;3.87;1.83;;;;;;;;;;10243994;28;20084;-66
2021/04/17 06:24:57;;;;;;;2.80;1.50;;;;;;;;;;10251194;28;20104;-64
2021/04/17 06:29:55;;;;;;;3.53;1.57;;;;;;;;;;10240991;28;20480;-63
2021/04/17 06:34:52;;;;;;;3.93;1.20;;;;;;;;;;10248145;28;20036;-64
2021/04/17 06:39:49;;;;;;;8.47;1.50;;;;;;;;;;10226305;28;20041;-62
2021/04/17 06:44:48;;;;;;;4.47;1.40;;;;;;;;;;10238402;28;20415;-64
2021/04/17 06:49:45;;;;;;;3.17;1.38;;;;;;;;;;10228088;28;20037;-64
2021/04/17 06:54:44;;;;;;;1.57;0.90;;;;;;;;;;10257292;28;20033;-64
2021/04/17 06:59:42;;;;;;;6.65;1.80;;;;;;;;;;10259435;28;20449;-62
2021/04/17 07:04:40;;;;;;;2.10;1.00;;;;;;;;;;10227574;28;20081;-64
2021/04/17 07:09:38;;;;;;;5.07;0.87;;;;;;;;;;10227254;28;20042;-65
2021/04/17 07:14:43;;;;;;;7.60;1.00;;;;;;;;;;10262210;28;20045;-65
2021/04/17 07:19:40;;;;;;;5.88;1.00;;;;;;;;;;10263263;28;20041;-65
2021/04/17 07:24:37;;;;;;;5.13;1.40;;;;;;;;;;10232622;28;20046;-65
2021/04/17 07:29:41;;;;;;;2.30;0.93;;;;;;;;;;10246050;28;20054;-64
2021/04/17 07:34:38;;;;;;;4.68;1.20;;;;;;;;;;10223033;28;20055;-64
2021/04/17 07:39:41;;;;;;;2.63;1.40;;;;;;;;;;10249366;28;20041;-65
2021/04/17 07:44:38;;;;;;;3.28;1.05;;;;;;;;;;10256865;28;20033;-65
2021/04/17 07:49:38;;;;;;;1.53;0.93;;;;;;;;;;10267800;28;20050;-64
2021/04/17 07:54:37;;;;;;;3.30;2.00;;;;;;;;;;10244237;28;20125;-64
2021/04/17 07:59:35;;;;;;;5.20;1.27;;;;;;;;;;10260976;28;20045;-64
2021/04/17 08:04:32;;;;;;;1.35;0.93;;;;;;;;;;10284567;28;20022;-63
2021/04/17 08:09:30;;;;;;;4.07;1.83;;;;;;;;;;10289656;28;20029;-64
2021/04/17 08:14:28;;;;;;;8.30;1.70;;;;;;;;;;10282847;28;20060;-64
2021/04/17 08:19:26;;;;;;;9.05;2.42;;;;;;;;;;10289693;28;20029;-63
2021/04/17 08:24:28;;;;;;;5.77;1.97;;;;;;;;;;10263882;28;20507;-63
2021/04/17 08:29:41;;;;;;;3.60;1.48;;;;;;;;;;10287101;28;20384;-64
2021/04/17 08:34:56;;;;;;;6.13;1.23;;;;;;;;;;10274260;28;20049;-64
2021/04/17 08:39:54;;;;;;;4.72;1.73;;;;;;;;;;10238351;28;20038;-63
2021/04/17 08:44:51;;;;;;;;;;;;;;;;;;10234429;28;20034;-64
2021/04/17 08:49:49;;;;;;;4.47;1.93;;;;;;;;;;10242381;28;20392;-63
2021/04/17 08:55:07;;;;;;;5.10;1.57;;;;;;;;;;10245275;28;20276;-62
2021/04/17 09:00:05;;;;;;;5.63;1.45;;;;;;;;;;10282931;28;20030;-62
2021/04/17 09:05:02;;;;;;;;;;;;;;;;;;10279154;28;20088;-62
2021/04/17 09:10:19;;;;;;;4.75;1.45;;;;;;;;;;10218139;28;19917;-65
2021/04/17 09:15:16;;;;;;;7.45;1.33;;;;;;;;;;10265663;28;20095;-64
2021/04/17 09:20:14;;;;;;;3.93;1.87;;;;;;;;;;10241867;28;20503;-63
2021/04/17 09:25:13;;;;;;;1.10;0.65;;;;;;;;;;10235458;28;20037;-63
2021/04/17 09:30:12;;;;;;;5.18;1.38;;;;;;;;;;10279714;28;20124;-65
2021/04/17 09:35:09;;;;;;;;;;;;;;;;;;10279539;28;20220;-65
2021/04/17 09:40:07;;;;;;;5.47;1.40;;;;;;;;;;10282937;28;19932;-65
2021/04/17 09:45:06;;;;;;;2.27;1.33;;;;;;;;;;10283699;28;20636;-65
2021/04/17 09:50:21;;;;;;;6.10;1.48;;;;;;;;;;10285484;28;20376;-63
2021/04/17 09:55:19;;;;;;;1.13;0.85;;;;;;;;;;10269129;28;20514;-61
2021/04/17 10:00:24;;;;;;;4.37;1.40;;;;;;;;;;10289138;28;20088;-62
2021/04/17 10:05:32;;;;;;;1.40;0.68;;;;;;;;;;10274247;28;20820;-63
2021/04/17 10:10:36;;;;;;;3.92;0.80;;;;;;;;;;10242651;28;20038;-63
2021/04/17 10:15:34;;;;;;;9.07;1.45;;;;;;;;;;10237767;28;20146;-65
2021/04/17 10:20:32;;;;;;;;;;;;;;;;;;10248617;28;20046;-64
2021/04/17 10:25:33;;;;;;;8.05;1.25;;;;;;;;;;10252852;28;19917;-64
2021/04/17 10:30:31;;;;;;;1.90;0.52;;;;;;;;;;10262616;28;20087;-64
2021/04/17 10:35:32;;;;;;;3.05;1.63;;;;;;;;;;10254597;28;20034;-63
2021/04/17 10:40:30;;;;;;;3.33;1.17;;;;;;;;;;10236706;28;20518;-63
2021/04/17 10:45:30;;;;;;;4.20;1.30;;;;;;;;;;10246644;28;20113;-63
2021/04/17 10:50:29;;;;;;;3.28;1.67;;;;;;;;;;10243127;28;20477;-64
2021/04/17 10:55:26;;;;;;;;;;;;;;;;;;10242398;28;20695;-64
2021/04/17 11:00:30;;;;;;;4.68;1.05;;;;;;;;;;10243188;28;19921;-64
2021/04/17 11:05:29;;;;;;;1.23;0.73;;;;;;;;;;10242754;28;20668;-64
2021/04/17 11:10:28;;;;;;;2.45;0.85;;;;;;;;;;10247290;28;20046;-64
2021/04/17 11:15:29;;;;;;;9.00;2.55;;;;;;;;;;10242732;28;20038;-63
2021/04/17 11:20:27;;;;;;;3.15;1.73;;;;;;;;;;10255855;28;20364;-60
2021/04/17 11:25:24;;;;;;;3.90;1.53;;;;;;;;;;10287329;28;20029;-63
2021/04/17 11:30:22;;;;;;;4.22;1.35;;;;;;;;;;10285734;28;20029;-63
2021/04/17 11:35:19;;;;;;;2.07;0.67;;;;;;;;;;10279765;28;20044;-63
2021/04/17 11:40:17;;;;;;;4.97;1.20;;;;;;;;;;10251934;28;20041;-62
2021/04/17 11:45:14;;;;;;;4.90;1.60;;;;;;;;;;10243377;28;20034;-62
2021/04/17 11:50:12;;;;;;;1.57;1.17;;;;;;;;;;10260336;28;20047;-63
2021/04/17 11:55:10;;;;;;;2.20;1.25;;;;;;;;;;10284679;28;20056;-63
2021/04/17 12:00:08;;;;;;;4.03;2.00;;;;;;;;;;10277573;28;20045;-63
2021/04/17 12:05:06;;;;;;;1.07;0.70;;;;;;;;;;10288398;28;20994;-64
2021/04/17 12:10:04;;;;;;;1.10;0.80;;;;;;;;;;10287963;28;20410;-63
2021/04/17 12:15:01;;;;;;;;;;;;;;;;;;10284696;28;20048;-63
2021/04/17 12:20:00;;;;;;;1.95;0.52;;;;;;;;;;10268776;28;19924;-62
2021/04/17 12:24:57;;;;;;;;;;;;;;;;;;10278389;28;20030;-62
2021/04/17 12:29:58;;;;;;;4.10;1.10;;;;;;;;;;10287377;28;19936;-62
2021/04/17 12:34:55;;;;;;;2.65;0.77;;;;;;;;;;10266328;28;20042;-62
2021/04/17 12:39:53;;;;;;;1.97;1.07;;;;;;;;;;10266016;28;20042;-62
2021/04/17 12:44:51;;;;;;;4.77;2.20;;;;;;;;;;10231483;28;20411;-63
2021/04/17 12:49:49;;;;;;;3.15;1.38;;;;;;;;;;10259998;28;20179;-63
2021/04/17 12:54:46;;;;;;;3.90;1.23;;;;;;;;;;10271751;28;20152;-63
2021/04/17 12:59:44;;;;;;;4.03;2.33;;;;;;;;;;10233543;28;20041;-63
2021/04/17 13:04:41;;;;;;;6.30;1.17;;;;;;;;;;10246977;28;20116;-63
2021/04/17 13:09:38;;;;;;;2.03;0.90;;;;;;;;;;10239078;28;20034;-62
2021/04/17 13:14:36;;;;;;;1.07;0.93;;;;;;;;;;10249798;28;20038;-63
2021/04/17 13:19:33;;;;;;;5.13;2.60;;;;;;;;;;10293108;28;20034;-63
2021/04/17 13:24:31;;;;;;;4.03;1.97;;;;;;;;;;10263515;28;20092;-63
2021/04/17 13:29:28;;;;;;;2.07;0.90;;;;;;;;;;10257206;28;20041;-63
2021/04/17 13:34:25;;;;;;;3.80;1.63;;;;;;;;;;10256179;28;20040;-62
2021/04/17 13:39:23;;;;;;;2.07;0.70;;;;;;;;;;10237836;28;20034;-63
2021/04/17 13:44:21;;;;;;;1.90;1.10;;;;;;;;;;10241857;28;20044;-62
2021/04/17 13:49:18;;;;;;;2.70;1.20;;;;;;;;;;10266719;28;20042;-63
2021/04/17 13:54:15;;;;;;;1.23;0.63;;;;;;;;;;10266132;28;20030;-63
2021/04/17 13:59:13;;;;;;;2.93;1.47;;;;;;;;;;10271996;28;20033;-61
2021/04/17 14:04:10;;;;;;;2.83;1.70;;;;;;;;;;10265720;28;20380;-63
2021/04/17 14:09:08;;;;;;;4.90;1.23;;;;;;;;;;10279196;28;20037;-63
2021/04/17 14:14:05;;;;;;;4.37;1.57;;;;;;;;;;10249435;28;20040;-64
2021/04/17 14:19:03;;;;;;;1.57;1.13;;;;;;;;;;10221387;28;20099;-63
2021/04/17 14:24:00;;;;;;;4.13;0.87;;;;;;;;;;10247220;28;20488;-63
2021/04/17 14:28:58;;;;;;;3.83;0.87;;;;;;;;;;10245130;28;20294;-63
2021/04/17 14:33:56;;;;;;;4.53;1.63;;;;;;;;;;10252905;28;20032;-64
2021/04/17 14:38:55;;;;;;;2.38;1.08;;;;;;;;;;10296428;28;20116;-63
2021/04/17 14:43:52;;;;;;;1.75;1.00;;;;;;;;;;10237520;28;20033;-64
2021/04/17 14:48:50;;;;;;;7.33;3.30;;;;;;;;;;10267450;28;20030;-64
2021/04/17 14:53:48;;;;;;;8.50;2.88;;;;;;;;;;10246699;28;20038;-63
2021/04/17 14:58:45;;;;;;;5.23;1.90;;;;;;;;;;10240336;28;20037;-64
2021/04/17 15:03:43;;;;;;;3.03;1.50;;;;;;;;;;10262935;28;20557;-64
2021/04/17 15:08:40;;;;;;;2.00;0.87;;;;;;;;;;10264775;28;20090;-63
2021/04/17 15:13:38;;;;;;;1.80;0.53;;;;;;;;;;10260731;28;20124;-63
2021/04/17 15:18:35;;;;;;;3.67;1.63;;;;;;;;;;10282398;28;20392;-63
2021/04/17 15:23:33;;;;;;;10.00;3.13;;;;;;;;;;10282795;28;20026;-63
2021/04/17 15:28:31;;;;;;;8.03;3.27;;;;;;;;;;10223200;28;20706;-64
2021/04/17 15:33:28;;;;;;;4.30;1.83;;;;;;;;;;10275769;28;20288;-63
2021/04/17 15:38:27;;;;;;;4.57;1.80;;;;;;;;;;10279601;28;20034;-62
2021/04/17 15:43:24;;;;;;;4.30;1.75;;;;;;;;;;10294172;28;20044;-63
2021/04/17 15:48:22;;;;;;;6.17;2.17;;;;;;;;;;10281728;28;20022;-63
2021/04/17 15:53:19;;;;;;;7.23;3.33;;;;;;;;;;10283073;28;20033;-63
2021/04/17 16:04:08;;;;;;;5.38;2.20;;;;;;;;;;10259118;28;20124;-63
2021/04/17 16:19:22;;;;;;;9.45;3.95;;;;;;;;;;10250149;28;20545;-63
2021/04/17 16:24:20;;;;;;;6.68;3.30;;;;;;;;;;10245250;28;20402;-63
2021/04/17 16:29:19;;;;;;;6.93;2.97;;;;;;;;;;10251183;28;20045;-63
2021/04/17 16:34:17;;;;;;;6.43;2.40;;;;;;;;;;10283740;28;20057;-63
2021/04/17 16:39:14;;;;;;;4.37;2.20;;;;;;;;;;10213244;28;20072;-63
2021/04/17 16:44:12;;;;;;;8.00;2.23;;;;;;;;;;10282247;28;20510;-63
2021/04/17 16:49:10;;;;;;;4.05;2.50;;;;;;;;;;10243500;28;20800;-63
2021/04/17 16:54:07;;;;;;;3.28;1.63;;;;;;;;;;10243264;28;20033;-61
2021/04/17 16:59:05;;;;;;;15.63;3.07;;;;;;;;;;10255704;28;20538;-61
2021/04/17 17:04:02;;;;;;;9.33;1.47;;;;;;;;;;10248402;28;20037;-63
2021/04/17 17:09:00;;;;;;;8.77;3.23;;;;;;;;;;10256935;28;20041;-62
2021/04/17 17:13:57;;;;;;;6.90;3.77;;;;;;;;;;10253285;28;20030;-62
2021/04/17 17:18:54;;;;;;;6.73;2.20;;;;;;;;;;10262958;28;20038;-63
2021/04/17 17:23:52;;;;;;;9.20;3.07;;;;;;;;;;10243200;28;20049;-62
2021/04/17 17:28:49;;;;;;;8.47;3.70;;;;;;;;;;10237660;28;20652;-61
2021/04/17 17:33:47;;;;;;;7.70;3.53;;;;;;;;;;10253620;28;20037;-62
2021/04/17 17:38:44;;;;;;;10.23;2.97;;;;;;;;;;10249757;28;20099;-62
2021/04/17 17:43:42;;;;;;;8.02;2.88;;;;;;;;;;10279448;28;20038;-63
2021/04/17 17:48:39;;;;;;;2.80;1.37;;;;;;;;;;10264232;28;20052;-64
2021/04/17 17:53:37;;;;;;;8.43;3.33;;;;;;;;;;10258127;28;20585;-62
2021/04/17 17:58:34;;;;;;;5.27;1.73;;;;;;;;;;10254945;28;20030;-63
2021/04/17 18:03:32;;;;;;;4.70;1.77;;;;;;;;;;10245880;28;20289;-64
2021/04/17 18:08:29;;;;;;;4.53;1.07;;;;;;;;;;10243798;28;20499;-65
2021/04/17 18:13:26;;;;;;;3.00;0.83;;;;;;;;;;10242089;28;20052;-64
2021/04/17 18:18:24;;;;;;;3.57;1.37;;;;;;;;;;10264538;28;20040;-64
2021/04/17 18:23:21;;;;;;;1.87;1.23;;;;;;;;;;10229249;28;20180;-63
2021/04/17 18:28:19;;;;;;;4.13;0.50;;;;;;;;;;10241335;28;20042;-63
2021/04/17 18:33:17;;;;;;;1.70;1.58;;;;;;;;;;10241971;28;20468;-63
2021/04/17 18:38:14;;;;;;;3.93;1.27;;;;;;;;;;10234327;28;20045;-66
2021/04/17 18:43:12;;;;;;;2.97;0.83;;;;;;;;;;10236008;28;20470;-64
2021/04/17 18:48:09;;;;;;;3.10;1.33;;;;;;;;;;10232562;28;20041;-61
2021/04/17 18:53:07;;;;;;;3.57;1.03;;;;;;;;;;10234801;28;20054;-61
2021/04/17 18:58:04;;;;;;;2.50;1.60;;;;;;;;;;10252749;28;20030;-63
2021/04/17 19:03:02;;;;;;;2.50;1.37;;;;;;;;;;10233255;28;20039;-61
2021/04/17 19:08:00;;;;;;;2.17;1.25;;;;;;;;;;10233850;28;20050;-61
2021/04/17 19:12:58;;;;;;;2.37;1.20;;;;;;;;;;10231465;28;20120;-62
2021/04/17 19:17:56;;;;;;;2.20;1.23;;;;;;;;;;10240290;28;20042;-61
2021/04/17 19:22:53;;;;;;;3.38;1.38;;;;;;;;;;10229301;28;20140;-63
2021/04/17 19:27:51;;;;;;;1.20;1.10;;;;;;;;;;10242974;28;20586;-62
2021/04/17 19:32:49;;;;;;;3.53;1.83;;;;;;;;;;10245584;28;20402;-61
2021/04/17 19:37:47;;;;;;;5.40;1.10;;;;;;;;;;10240891;28;20038;-64
2021/04/17 19:42:46;;;;;;;4.78;1.80;;;;;;;;;;10263604;28;20038;-62
2021/04/17 19:47:44;;;;;;;5.38;0.98;;;;;;;;;;10241834;28;20553;-63
2021/04/17 19:52:42;;;;;;;2.00;1.27;;;;;;;;;;10248017;28;20030;-62
2021/04/17 19:57:41;;;;;;;2.70;1.27;;;;;;;;;;10247653;28;20038;-63
2021/04/17 20:02:38;;;;;;;4.40;1.77;;;;;;;;;;10226806;28;20124;-62
2021/04/17 20:07:36;;;;;;;2.87;1.40;;;;;;;;;;10248693;28;20385;-62
2021/04/17 20:12:34;;;;;;;2.90;1.50;;;;;;;;;;10246838;28;20119;-63
2021/04/17 20:17:32;;;;;;;8.93;1.67;;;;;;;;;;10255189;28;20730;-62
2021/04/17 20:22:29;;;;;;;2.83;1.60;;;;;;;;;;10244219;28;20294;-62
2021/04/17 20:27:27;;;;;;;6.47;2.80;;;;;;;;;;10254197;28;20796;-61
2021/04/17 20:32:25;;;;;;;6.97;2.50;;;;;;;;;;10254626;28;20123;-61
2021/04/17 20:37:24;;;;;;;4.37;1.37;;;;;;;;;;10249024;28;20338;-60
2021/04/17 20:42:22;;;;;;;3.95;2.03;;;;;;;;;;10236885;28;20124;-61
2021/04/17 20:47:19;;;;;;;5.93;2.13;;;;;;;;;;10250347;28;20569;-63
2021/04/17 20:52:17;;;;;;;9.93;4.57;;;;;;;;;;10273235;28;20069;-61
2021/04/17 20:57:14;;;;;;;11.63;5.17;;;;;;;;;;10243849;28;20499;-65
2021/04/17 21:02:13;;;;;;;9.00;4.70;;;;;;;;;;10251435;28;20038;-64
2021/04/17 21:07:10;;;;;;;;;;;;;;;;;;10230578;28;20042;-65
2021/04/17 21:12:08;;;;;;;6.53;4.07;;;;;;;;;;10231559;28;19917;-64
2021/04/17 21:17:05;;;;;;;13.47;5.03;;;;;;;;;;10246236;28;20109;-64
2021/04/17 21:22:05;;;;;;;7.50;3.95;;;;;;;;;;10248980;28;20427;-63
2021/04/17 21:27:02;;;;;;;14.32;4.93;;;;;;;;;;10231216;28;20034;-65
2021/04/17 21:32:00;;;;;;;8.63;4.90;;;;;;;;;;10241683;28;20047;-64
2021/04/17 21:36:57;;;;;;;11.03;4.87;;;;;;;;;;10240691;28;20038;-64
2021/04/17 21:41:56;;;;;;;9.57;5.20;;;;;;;;;;10265468;28;20503;-62
2021/04/17 21:46:53;;;;;;;;;;;;;;;;;;10250985;28;20338;-63
2021/04/17 21:51:50;;;;;;;7.25;4.82;;;;;;;;;;10254225;28;19986;-63
2021/04/17 21:56:48;;;;;;;9.83;4.53;;;;;;;;;;10234365;28;20048;-63
2021/04/17 22:01:47;;;;;;;15.03;5.53;;;;;;;;;;10252652;28;20061;-62
2021/04/17 22:06:45;;;;;;;12.18;6.18;;;;;;;;;;10252720;28;20523;-64
2021/04/17 22:11:43;;;;;;;9.07;4.80;;;;;;;;;;10251359;28;20471;-64
2021/04/17 22:16:40;;;;;;;9.10;3.70;;;;;;;;;;10265419;28;20669;-61
2021/04/17 22:21:37;;;;;;;8.47;4.33;;;;;;;;;;10248980;28;20041;-60
2021/04/17 22:26:35;;;;;;;7.47;4.10;;;;;;;;;;10256507;28;20096;-64
2021/04/17 22:31:33;;;;;;;8.33;4.70;;;;;;;;;;10259173;28;20022;-62
2021/04/17 22:36:31;;;;;;;7.65;4.95;;;;;;;;;;10252743;28;20108;-62
2021/04/17 22:41:28;;;;;;;9.30;4.60;;;;;;;;;;10255562;28;20083;-63
2021/04/17 22:46:25;;;;;;;6.17;4.77;;;;;;;;;;10250614;28;20026;-64
2021/04/17 22:51:23;;;;;;;7.33;4.33;;;;;;;;;;10238731;28;20042;-63
2021/04/17 22:56:22;;;;;;;7.43;3.93;;;;;;;;;;10239909;28;20035;-66
2021/04/17 23:01:20;;;;;;;8.93;4.68;;;;;;;;;;10241715;28;20459;-64
2021/04/17 23:06:17;;;;;;;11.07;4.10;;;;;;;;;;10243017;28;20133;-65
2021/04/17 23:11:15;;;;;;;8.03;3.60;;;;;;;;;;10244988;28;20091;-64
2021/04/17 23:16:12;;;;;;;7.83;3.93;;;;;;;;;;10247910;28;20030;-65
2021/04/17 23:21:10;;;;;;;5.20;2.87;;;;;;;;;;10277879;28;20038;-65
2021/04/17 23:26:07;;;;;;;9.40;4.63;;;;;;;;;;10276473;28;20037;-64
2021/04/17 23:31:04;;;;;;;9.33;3.53;;;;;;;;;;10252808;28;20049;-63
2021/04/17 23:36:02;;;;;;;7.90;3.90;;;;;;;;;;10253634;28;20041;-62
2021/04/17 23:41:00;;;;;;;6.47;3.90;;;;;;;;;;10238014;28;20079;-63
2021/04/17 23:45:57;;;;;;;5.07;3.20;;;;;;;;;;10244514;28;20034;-62
2021/04/17 23:50:55;;;;;;;7.63;4.13;;;;;;;;;;10278848;28;20034;-62
2021/04/17 23:55:52;;;;;;;5.82;3.83;;;;;;;;;;10285860;28;20049;-59
